Terminal Aerodrome Forecast
Issued by NWS

Home | Current Version | Previous Version | Text Only | Print | Product List | Glossary On
Versions: 1 2 3 4 5 6 7 8 9 10 11 12
000
FTUS43 KJKL 152300
TAFSME
TAF
KSME 152325Z 1600/1624 VRB03KT P6SM BKN180
     FM160800 00000KT P6SM OVC040
     FM161100 VRB03KT P6SM VCSH BKN022 OVC030
     FM161600 34005KT P6SM BKN025
     FM162200 VRB03KT P6SM SCT035
      AMD NOT SKED=

USA.gov is the U.S. government's official web portal to all federal, state and local government web resources and services.